sensor_id;sensor_type;location;lat;lon;timestamp;temperature;humidity
20418;DHT22;10368;51.436;6.774;2024-03-06T00:02:22;5.80;99.90
20418;DHT22;10368;51.436;6.774;2024-03-06T00:04:49;5.60;99.90
20418;DHT22;10368;51.436;6.774;2024-03-06T00:07:16;5.50;99.90
20418;DHT22;10368;51.436;6.774;2024-03-06T00:09:43;5.50;99.90
20418;DHT22;10368;51.436;6.774;2024-03-06T00:12:11;5.40;99.90
20418;DHT22;10368;51.436;6.774;2024-03-06T00:14:38;5.40;99.90
20418;DHT22;10368;51.436;6.774;2024-03-06T00:17:05;5.30;99.90
20418;DHT22;10368;51.436;6.774;2024-03-06T00:19:34;5.30;99.90
20418;DHT22;10368;51.436;6.774;2024-03-06T00:22:01;5.40;99.90
20418;DHT22;10368;51.436;6.774;2024-03-06T00:24:29;5.60;99.90
20418;DHT22;10368;51.436;6.774;2024-03-06T00:26:56;5.90;99.90
20418;DHT22;10368;51.436;6.774;2024-03-06T00:29:23;6.00;99.90
20418;DHT22;10368;51.436;6.774;2024-03-06T00:31:50;6.00;99.90
20418;DHT22;10368;51.436;6.774;2024-03-06T00:34:17;6.00;99.90
20418;DHT22;10368;51.436;6.774;2024-03-06T00:36:44;5.90;99.90
20418;DHT22;10368;51.436;6.774;2024-03-06T00:39:11;6.00;99.90
20418;DHT22;10368;51.436;6.774;2024-03-06T00:41:41;6.00;99.90
20418;DHT22;10368;51.436;6.774;2024-03-06T00:44:08;5.90;99.90
20418;DHT22;10368;51.436;6.774;2024-03-06T00:46:36;6.00;99.90
20418;DHT22;10368;51.436;6.774;2024-03-06T00:49:03;5.90;99.90
20418;DHT22;10368;51.436;6.774;2024-03-06T00:51:30;5.90;99.90
20418;DHT22;10368;51.436;6.774;2024-03-06T00:54:10;5.90;99.90
20418;DHT22;10368;51.436;6.774;2024-03-06T00:56:38;6.00;99.90
20418;DHT22;10368;51.436;6.774;2024-03-06T00:59:06;6.00;99.90
20418;DHT22;10368;51.436;6.774;2024-03-06T01:01:33;5.90;99.90
20418;DHT22;10368;51.436;6.774;2024-03-06T01:04:00;6.00;99.90
20418;DHT22;10368;51.436;6.774;2024-03-06T01:06:27;5.90;99.90
20418;DHT22;10368;51.436;6.774;2024-03-06T01:08:54;5.60;99.90
20418;DHT22;10368;51.436;6.774;2024-03-06T01:11:21;5.80;99.90
20418;DHT22;10368;51.436;6.774;2024-03-06T01:13:48;5.80;99.90
20418;DHT22;10368;51.436;6.774;2024-03-06T01:16:15;5.90;99.90
20418;DHT22;10368;51.436;6.774;2024-03-06T01:18:42;5.80;99.90
20418;DHT22;10368;51.436;6.774;2024-03-06T01:21:09;5.90;99.90
20418;DHT22;10368;51.436;6.774;2024-03-06T01:23:36;5.90;99.90
20418;DHT22;10368;51.436;6.774;2024-03-06T01:26:03;5.90;99.90
20418;DHT22;10368;51.436;6.774;2024-03-06T01:28:30;6.00;99.90
20418;DHT22;10368;51.436;6.774;2024-03-06T01:30:57;5.90;99.90
20418;DHT22;10368;51.436;6.774;2024-03-06T01:33:25;5.90;99.90
20418;DHT22;10368;51.436;6.774;2024-03-06T01:35:53;5.90;99.90
20418;DHT22;10368;51.436;6.774;2024-03-06T01:38:20;5.90;99.90
20418;DHT22;10368;51.436;6.774;2024-03-06T01:40:47;6.00;99.90
20418;DHT22;10368;51.436;6.774;2024-03-06T01:43:22;6.00;99.90
20418;DHT22;10368;51.436;6.774;2024-03-06T01:45:50;6.00;99.90
20418;DHT22;10368;51.436;6.774;2024-03-06T01:48:27;6.00;99.90
20418;DHT22;10368;51.436;6.774;2024-03-06T01:50:56;5.80;99.90
20418;DHT22;10368;51.436;6.774;2024-03-06T01:53:24;5.80;99.90
20418;DHT22;10368;51.436;6.774;2024-03-06T01:55:54;6.00;99.90
20418;DHT22;10368;51.436;6.774;2024-03-06T01:58:21;6.10;99.90
20418;DHT22;10368;51.436;6.774;2024-03-06T02:00:50;6.10;99.90
20418;DHT22;10368;51.436;6.774;2024-03-06T02:03:18;6.10;99.90
20418;DHT22;10368;51.436;6.774;2024-03-06T02:05:48;6.10;99.90
20418;DHT22;10368;51.436;6.774;2024-03-06T02:08:16;6.10;99.90
20418;DHT22;10368;51.436;6.774;2024-03-06T02:10:45;5.90;99.90
20418;DHT22;10368;51.436;6.774;2024-03-06T02:13:13;6.00;99.90
20418;DHT22;10368;51.436;6.774;2024-03-06T02:15:41;5.90;99.90
20418;DHT22;10368;51.436;6.774;2024-03-06T02:18:08;5.90;99.90
20418;DHT22;10368;51.436;6.774;2024-03-06T02:20:38;5.70;99.90
20418;DHT22;10368;51.436;6.774;2024-03-06T02:23:06;5.70;99.90
20418;DHT22;10368;51.436;6.774;2024-03-06T02:25:34;5.70;99.90
20418;DHT22;10368;51.436;6.774;2024-03-06T02:28:01;5.80;99.90
20418;DHT22;10368;51.436;6.774;2024-03-06T02:30:28;5.90;99.90
20418;DHT22;10368;51.436;6.774;2024-03-06T02:32:57;5.70;99.90
20418;DHT22;10368;51.436;6.774;2024-03-06T02:35:25;5.70;99.90
20418;DHT22;10368;51.436;6.774;2024-03-06T02:37:52;5.40;99.90
20418;DHT22;10368;51.436;6.774;2024-03-06T02:40:18;5.60;99.90
20418;DHT22;10368;51.436;6.774;2024-03-06T02:42:46;5.70;99.90
20418;DHT22;10368;51.436;6.774;2024-03-06T02:45:12;5.80;99.90
20418;DHT22;10368;51.436;6.774;2024-03-06T02:47:40;5.70;99.90
20418;DHT22;10368;51.436;6.774;2024-03-06T02:50:07;5.60;99.90
20418;DHT22;10368;51.436;6.774;2024-03-06T02:52:34;5.50;99.90
20418;DHT22;10368;51.436;6.774;2024-03-06T02:55:01;5.60;99.90
20418;DHT22;10368;51.436;6.774;2024-03-06T02:57:29;5.60;99.90
20418;DHT22;10368;51.436;6.774;2024-03-06T02:59:57;5.40;99.90
20418;DHT22;10368;51.436;6.774;2024-03-06T03:02:24;5.40;99.90
20418;DHT22;10368;51.436;6.774;2024-03-06T03:04:52;5.50;99.90
20418;DHT22;10368;51.436;6.774;2024-03-06T03:07:19;5.30;99.90
20418;DHT22;10368;51.436;6.774;2024-03-06T03:09:47;5.40;99.90
20418;DHT22;10368;51.436;6.774;2024-03-06T03:12:14;5.50;99.90
20418;DHT22;10368;51.436;6.774;2024-03-06T03:14:41;5.50;99.90
20418;DHT22;10368;51.436;6.774;2024-03-06T03:17:08;5.40;99.90
20418;DHT22;10368;51.436;6.774;2024-03-06T03:19:35;5.40;99.90
20418;DHT22;10368;51.436;6.774;2024-03-06T03:22:03;5.40;99.90
20418;DHT22;10368;51.436;6.774;2024-03-06T03:24:31;5.20;99.90
20418;DHT22;10368;51.436;6.774;2024-03-06T03:26:58;5.40;99.90
20418;DHT22;10368;51.436;6.774;2024-03-06T03:29:24;5.40;99.90
20418;DHT22;10368;51.436;6.774;2024-03-06T03:31:51;5.50;99.90
20418;DHT22;10368;51.436;6.774;2024-03-06T03:34:19;5.50;99.90
20418;DHT22;10368;51.436;6.774;2024-03-06T03:36:47;5.40;99.90
20418;DHT22;10368;51.436;6.774;2024-03-06T03:39:15;5.40;99.90
20418;DHT22;10368;51.436;6.774;2024-03-06T03:41:48;5.20;99.90
20418;DHT22;10368;51.436;6.774;2024-03-06T03:44:16;5.30;99.90
20418;DHT22;10368;51.436;6.774;2024-03-06T03:46:43;5.30;99.90
20418;DHT22;10368;51.436;6.774;2024-03-06T03:49:11;5.20;99.90
20418;DHT22;10368;51.436;6.774;2024-03-06T03:51:39;5.10;99.90
20418;DHT22;10368;51.436;6.774;2024-03-06T03:54:06;4.90;99.90
20418;DHT22;10368;51.436;6.774;2024-03-06T03:56:33;5.00;99.90
20418;DHT22;10368;51.436;6.774;2024-03-06T03:59:00;5.10;99.90
20418;DHT22;10368;51.436;6.774;2024-03-06T04:01:27;5.00;99.90
20418;DHT22;10368;51.436;6.774;2024-03-06T04:03:54;5.00;99.90
20418;DHT22;10368;51.436;6.774;2024-03-06T04:06:21;5.10;99.90
20418;DHT22;10368;51.436;6.774;2024-03-06T04:08:48;5.20;99.90
20418;DHT22;10368;51.436;6.774;2024-03-06T04:11:15;5.20;99.90
20418;DHT22;10368;51.436;6.774;2024-03-06T04:13:43;5.20;99.90
20418;DHT22;10368;51.436;6.774;2024-03-06T04:16:10;4.90;99.90
20418;DHT22;10368;51.436;6.774;2024-03-06T04:18:42;5.00;99.90
20418;DHT22;10368;51.436;6.774;2024-03-06T04:21:08;4.90;99.90
20418;DHT22;10368;51.436;6.774;2024-03-06T04:23:37;4.90;99.90
20418;DHT22;10368;51.436;6.774;2024-03-06T04:26:04;4.90;99.90
20418;DHT22;10368;51.436;6.774;2024-03-06T04:28:32;4.90;99.90
20418;DHT22;10368;51.436;6.774;2024-03-06T04:30:59;5.00;99.90
20418;DHT22;10368;51.436;6.774;2024-03-06T04:33:26;5.00;99.90
20418;DHT22;10368;51.436;6.774;2024-03-06T04:35:53;5.00;99.90
20418;DHT22;10368;51.436;6.774;2024-03-06T04:38:20;5.10;99.90
20418;DHT22;10368;51.436;6.774;2024-03-06T04:40:47;5.10;99.90
20418;DHT22;10368;51.436;6.774;2024-03-06T04:43:14;5.10;99.90
20418;DHT22;10368;51.436;6.774;2024-03-06T04:45:41;5.10;99.90
20418;DHT22;10368;51.436;6.774;2024-03-06T04:48:08;5.10;99.90
20418;DHT22;10368;51.436;6.774;2024-03-06T04:50:35;5.10;99.90
20418;DHT22;10368;51.436;6.774;2024-03-06T04:53:02;5.10;99.90
20418;DHT22;10368;51.436;6.774;2024-03-06T04:55:29;5.10;99.90
20418;DHT22;10368;51.436;6.774;2024-03-06T04:57:57;5.30;99.90
20418;DHT22;10368;51.436;6.774;2024-03-06T05:00:24;5.40;99.90
20418;DHT22;10368;51.436;6.774;2024-03-06T05:02:51;5.20;99.90
20418;DHT22;10368;51.436;6.774;2024-03-06T05:05:35;5.30;99.90
20418;DHT22;10368;51.436;6.774;2024-03-06T05:08:20;5.30;99.90
20418;DHT22;10368;51.436;6.774;2024-03-06T05:11:04;5.20;99.90
20418;DHT22;10368;51.436;6.774;2024-03-06T05:13:49;5.20;99.90
20418;DHT22;10368;51.436;6.774;2024-03-06T05:16:34;5.20;99.90
20418;DHT22;10368;51.436;6.774;2024-03-06T05:19:18;5.10;99.90
20418;DHT22;10368;51.436;6.774;2024-03-06T05:22:04;5.20;99.90
20418;DHT22;10368;51.436;6.774;2024-03-06T05:24:49;5.20;99.90
20418;DHT22;10368;51.436;6.774;2024-03-06T05:27:33;5.10;99.90
20418;DHT22;10368;51.436;6.774;2024-03-06T05:30:18;5.20;99.90
20418;DHT22;10368;51.436;6.774;2024-03-06T05:33:02;5.00;99.90
20418;DHT22;10368;51.436;6.774;2024-03-06T05:35:46;5.10;99.90
20418;DHT22;10368;51.436;6.774;2024-03-06T05:38:31;4.90;99.90
20418;DHT22;10368;51.436;6.774;2024-03-06T05:41:15;4.80;99.90
20418;DHT22;10368;51.436;6.774;2024-03-06T05:44:02;5.10;99.90
20418;DHT22;10368;51.436;6.774;2024-03-06T05:46:48;5.20;99.90
20418;DHT22;10368;51.436;6.774;2024-03-06T05:49:33;5.00;99.90
20418;DHT22;10368;51.436;6.774;2024-03-06T05:52:17;5.10;99.90
20418;DHT22;10368;51.436;6.774;2024-03-06T05:55:02;5.10;99.90
20418;DHT22;10368;51.436;6.774;2024-03-06T05:57:50;5.20;99.90
20418;DHT22;10368;51.436;6.774;2024-03-06T06:00:38;5.20;99.90
20418;DHT22;10368;51.436;6.774;2024-03-06T06:03:08;5.00;99.90
20418;DHT22;10368;51.436;6.774;2024-03-06T06:05:35;5.00;99.90
20418;DHT22;10368;51.436;6.774;2024-03-06T06:08:04;4.90;99.90
20418;DHT22;10368;51.436;6.774;2024-03-06T06:10:31;5.10;99.90
20418;DHT22;10368;51.436;6.774;2024-03-06T06:12:58;5.10;99.90
20418;DHT22;10368;51.436;6.774;2024-03-06T06:15:25;5.10;99.90
20418;DHT22;10368;51.436;6.774;2024-03-06T06:17:52;5.30;99.90
20418;DHT22;10368;51.436;6.774;2024-03-06T06:20:20;5.40;99.90
20418;DHT22;10368;51.436;6.774;2024-03-06T06:22:47;5.50;99.90
20418;DHT22;10368;51.436;6.774;2024-03-06T06:25:14;5.40;99.90
20418;DHT22;10368;51.436;6.774;2024-03-06T06:27:42;5.50;99.90
20418;DHT22;10368;51.436;6.774;2024-03-06T06:30:10;5.50;99.90
20418;DHT22;10368;51.436;6.774;2024-03-06T06:32:39;5.50;99.90
20418;DHT22;10368;51.436;6.774;2024-03-06T06:35:09;5.50;99.90
20418;DHT22;10368;51.436;6.774;2024-03-06T06:37:37;5.50;99.90
20418;DHT22;10368;51.436;6.774;2024-03-06T06:40:09;5.60;99.90
20418;DHT22;10368;51.436;6.774;2024-03-06T06:42:44;5.60;99.90
20418;DHT22;10368;51.436;6.774;2024-03-06T06:45:14;5.50;99.90
20418;DHT22;10368;51.436;6.774;2024-03-06T06:47:40;5.40;99.90
20418;DHT22;10368;51.436;6.774;2024-03-06T06:50:08;5.30;99.90
20418;DHT22;10368;51.436;6.774;2024-03-06T06:52:36;5.30;99.90
20418;DHT22;10368;51.436;6.774;2024-03-06T06:55:04;5.40;99.90
20418;DHT22;10368;51.436;6.774;2024-03-06T06:57:32;5.30;99.90
20418;DHT22;10368;51.436;6.774;2024-03-06T07:00:03;5.40;99.90
20418;DHT22;10368;51.436;6.774;2024-03-06T07:02:38;5.40;99.90
20418;DHT22;10368;51.436;6.774;2024-03-06T07:05:09;5.60;99.90
20418;DHT22;10368;51.436;6.774;2024-03-06T07:07:37;5.70;99.90
20418;DHT22;10368;51.436;6.774;2024-03-06T07:10:05;5.80;99.90
20418;DHT22;10368;51.436;6.774;2024-03-06T07:12:33;5.90;99.90
20418;DHT22;10368;51.436;6.774;2024-03-06T07:15:00;5.90;99.90
20418;DHT22;10368;51.436;6.774;2024-03-06T07:17:27;6.00;99.90
20418;DHT22;10368;51.436;6.774;2024-03-06T07:19:54;5.90;99.90
20418;DHT22;10368;51.436;6.774;2024-03-06T07:22:21;5.90;99.90
20418;DHT22;10368;51.436;6.774;2024-03-06T07:24:48;5.90;99.90
20418;DHT22;10368;51.436;6.774;2024-03-06T07:27:15;6.00;99.90
20418;DHT22;10368;51.436;6.774;2024-03-06T07:29:42;6.00;99.90
20418;DHT22;10368;51.436;6.774;2024-03-06T07:32:09;6.10;99.90
20418;DHT22;10368;51.436;6.774;2024-03-06T07:34:37;6.10;99.90
20418;DHT22;10368;51.436;6.774;2024-03-06T07:37:04;5.90;99.90
20418;DHT22;10368;51.436;6.774;2024-03-06T07:39:32;5.80;99.90
20418;DHT22;10368;51.436;6.774;2024-03-06T07:41:59;5.80;99.90
20418;DHT22;10368;51.436;6.774;2024-03-06T07:44:26;5.80;99.90
20418;DHT22;10368;51.436;6.774;2024-03-06T07:46:53;5.80;99.90
20418;DHT22;10368;51.436;6.774;2024-03-06T07:49:21;5.80;99.90
20418;DHT22;10368;51.436;6.774;2024-03-06T07:51:48;5.90;99.90
20418;DHT22;10368;51.436;6.774;2024-03-06T07:54:15;5.90;99.90
20418;DHT22;10368;51.436;6.774;2024-03-06T07:56:44;6.00;99.90
20418;DHT22;10368;51.436;6.774;2024-03-06T07:59:11;6.00;99.90
20418;DHT22;10368;51.436;6.774;2024-03-06T08:01:39;6.00;99.90
20418;DHT22;10368;51.436;6.774;2024-03-06T08:04:07;6.10;99.90
20418;DHT22;10368;51.436;6.774;2024-03-06T08:06:34;6.10;99.90
20418;DHT22;10368;51.436;6.774;2024-03-06T08:09:04;6.10;99.90
20418;DHT22;10368;51.436;6.774;2024-03-06T08:11:31;6.10;99.90
20418;DHT22;10368;51.436;6.774;2024-03-06T08:13:59;6.10;99.90
20418;DHT22;10368;51.436;6.774;2024-03-06T08:16:27;6.10;99.90
20418;DHT22;10368;51.436;6.774;2024-03-06T08:18:55;6.10;99.90
20418;DHT22;10368;51.436;6.774;2024-03-06T08:21:22;6.10;99.90
20418;DHT22;10368;51.436;6.774;2024-03-06T08:23:49;6.20;99.90
20418;DHT22;10368;51.436;6.774;2024-03-06T08:26:16;6.30;99.90
20418;DHT22;10368;51.436;6.774;2024-03-06T08:28:43;6.30;99.90
20418;DHT22;10368;51.436;6.774;2024-03-06T08:31:10;6.40;99.90
20418;DHT22;10368;51.436;6.774;2024-03-06T08:33:37;6.50;99.90
20418;DHT22;10368;51.436;6.774;2024-03-06T08:36:04;6.50;99.90
20418;DHT22;10368;51.436;6.774;2024-03-06T08:38:31;6.60;99.90
20418;DHT22;10368;51.436;6.774;2024-03-06T08:40:58;6.70;99.90
20418;DHT22;10368;51.436;6.774;2024-03-06T08:43:25;6.70;99.90
20418;DHT22;10368;51.436;6.774;2024-03-06T08:45:53;6.80;99.90
20418;DHT22;10368;51.436;6.774;2024-03-06T08:48:21;6.80;99.90
20418;DHT22;10368;51.436;6.774;2024-03-06T08:50:48;7.00;99.90
20418;DHT22;10368;51.436;6.774;2024-03-06T08:53:16;7.00;99.90
20418;DHT22;10368;51.436;6.774;2024-03-06T08:55:43;7.00;99.90
20418;DHT22;10368;51.436;6.774;2024-03-06T08:58:10;7.00;99.90
20418;DHT22;10368;51.436;6.774;2024-03-06T09:00:37;7.10;99.90
20418;DHT22;10368;51.436;6.774;2024-03-06T09:03:04;7.20;99.90
20418;DHT22;10368;51.436;6.774;2024-03-06T09:05:31;7.20;99.90
20418;DHT22;10368;51.436;6.774;2024-03-06T09:07:58;7.30;99.90
20418;DHT22;10368;51.436;6.774;2024-03-06T09:10:28;7.40;99.90
20418;DHT22;10368;51.436;6.774;2024-03-06T09:12:55;7.40;99.90
20418;DHT22;10368;51.436;6.774;2024-03-06T09:15:22;7.40;99.90
20418;DHT22;10368;51.436;6.774;2024-03-06T09:17:50;7.60;99.90
20418;DHT22;10368;51.436;6.774;2024-03-06T09:20:17;7.50;99.90
20418;DHT22;10368;51.436;6.774;2024-03-06T09:22:44;7.50;99.90
20418;DHT22;10368;51.436;6.774;2024-03-06T09:25:11;7.50;99.90
20418;DHT22;10368;51.436;6.774;2024-03-06T09:27:43;7.50;99.90
20418;DHT22;10368;51.436;6.774;2024-03-06T09:30:10;7.50;99.90
20418;DHT22;10368;51.436;6.774;2024-03-06T09:32:39;7.70;99.90
20418;DHT22;10368;51.436;6.774;2024-03-06T09:35:07;7.70;99.90
20418;DHT22;10368;51.436;6.774;2024-03-06T09:37:34;7.70;99.90
20418;DHT22;10368;51.436;6.774;2024-03-06T09:40:01;7.80;99.90
20418;DHT22;10368;51.436;6.774;2024-03-06T09:42:28;7.90;99.90
20418;DHT22;10368;51.436;6.774;2024-03-06T09:44:55;7.60;99.90
20418;DHT22;10368;51.436;6.774;2024-03-06T09:47:22;7.80;99.90
20418;DHT22;10368;51.436;6.774;2024-03-06T09:49:52;8.10;99.90
20418;DHT22;10368;51.436;6.774;2024-03-06T09:52:23;8.10;99.90
20418;DHT22;10368;51.436;6.774;2024-03-06T09:54:54;8.10;99.90
20418;DHT22;10368;51.436;6.774;2024-03-06T09:57:22;8.10;99.90
20418;DHT22;10368;51.436;6.774;2024-03-06T09:59:49;8.20;99.90
20418;DHT22;10368;51.436;6.774;2024-03-06T10:02:38;8.30;99.90
20418;DHT22;10368;51.436;6.774;2024-03-06T10:05:06;8.20;99.90
20418;DHT22;10368;51.436;6.774;2024-03-06T10:07:34;8.20;99.90
20418;DHT22;10368;51.436;6.774;2024-03-06T10:10:01;8.20;99.90
20418;DHT22;10368;51.436;6.774;2024-03-06T10:12:28;8.20;99.90
20418;DHT22;10368;51.436;6.774;2024-03-06T10:14:56;8.30;99.90
20418;DHT22;10368;51.436;6.774;2024-03-06T10:17:24;8.40;99.90
20418;DHT22;10368;51.436;6.774;2024-03-06T10:19:54;8.60;99.90
20418;DHT22;10368;51.436;6.774;2024-03-06T10:22:22;8.60;99.90
20418;DHT22;10368;51.436;6.774;2024-03-06T10:24:55;8.50;99.90
20418;DHT22;10368;51.436;6.774;2024-03-06T10:27:23;8.40;99.90
20418;DHT22;10368;51.436;6.774;2024-03-06T10:30:03;8.70;99.90
20418;DHT22;10368;51.436;6.774;2024-03-06T10:32:32;8.80;99.90
20418;DHT22;10368;51.436;6.774;2024-03-06T10:35:00;9.00;99.90
20418;DHT22;10368;51.436;6.774;2024-03-06T10:37:28;9.20;99.90
20418;DHT22;10368;51.436;6.774;2024-03-06T10:39:58;9.30;99.90
20418;DHT22;10368;51.436;6.774;2024-03-06T10:42:33;9.60;99.90
20418;DHT22;10368;51.436;6.774;2024-03-06T10:45:04;9.50;99.90
20418;DHT22;10368;51.436;6.774;2024-03-06T10:47:33;9.60;99.90
20418;DHT22;10368;51.436;6.774;2024-03-06T10:50:01;9.50;99.90
20418;DHT22;10368;51.436;6.774;2024-03-06T10:52:33;9.30;99.90
20418;DHT22;10368;51.436;6.774;2024-03-06T10:55:02;9.40;99.90
20418;DHT22;10368;51.436;6.774;2024-03-06T10:57:30;9.30;99.90
20418;DHT22;10368;51.436;6.774;2024-03-06T10:59:58;9.30;99.90
20418;DHT22;10368;51.436;6.774;2024-03-06T11:02:31;9.40;99.90
20418;DHT22;10368;51.436;6.774;2024-03-06T11:04:59;9.50;99.90
20418;DHT22;10368;51.436;6.774;2024-03-06T11:07:26;10.10;99.90
20418;DHT22;10368;51.436;6.774;2024-03-06T11:09:58;10.00;99.90
20418;DHT22;10368;51.436;6.774;2024-03-06T11:12:36;10.20;99.90
20418;DHT22;10368;51.436;6.774;2024-03-06T11:15:16;10.40;99.90
20418;DHT22;10368;51.436;6.774;2024-03-06T11:17:43;11.00;99.90
20418;DHT22;10368;51.436;6.774;2024-03-06T11:20:15;10.30;99.90
20418;DHT22;10368;51.436;6.774;2024-03-06T11:28:27;11.10;99.90
20418;DHT22;10368;51.436;6.774;2024-03-06T11:30:58;11.00;99.90
20418;DHT22;10368;51.436;6.774;2024-03-06T11:33:45;11.30;99.90
20418;DHT22;10368;51.436;6.774;2024-03-06T11:41:33;11.20;99.90
20418;DHT22;10368;51.436;6.774;2024-03-06T11:44:16;11.40;99.90
20418;DHT22;10368;51.436;6.774;2024-03-06T11:46:48;11.00;99.90
20418;DHT22;10368;51.436;6.774;2024-03-06T11:49:20;11.10;99.90
20418;DHT22;10368;51.436;6.774;2024-03-06T11:51:48;10.90;99.90
20418;DHT22;10368;51.436;6.774;2024-03-06T11:54:15;10.90;99.90
20418;DHT22;10368;51.436;6.774;2024-03-06T11:56:45;11.10;99.90
20418;DHT22;10368;51.436;6.774;2024-03-06T11:59:17;10.90;99.90
20418;DHT22;10368;51.436;6.774;2024-03-06T12:01:47;11.00;99.90
20418;DHT22;10368;51.436;6.774;2024-03-06T12:04:14;10.70;99.90
20418;DHT22;10368;51.436;6.774;2024-03-06T12:06:41;10.60;99.90
20418;DHT22;10368;51.436;6.774;2024-03-06T12:09:08;10.70;99.90
20418;DHT22;10368;51.436;6.774;2024-03-06T12:11:38;10.70;99.90
20418;DHT22;10368;51.436;6.774;2024-03-06T12:14:05;10.70;99.90
20418;DHT22;10368;51.436;6.774;2024-03-06T12:16:32;10.60;99.90
20418;DHT22;10368;51.436;6.774;2024-03-06T12:18:59;10.70;99.90
20418;DHT22;10368;51.436;6.774;2024-03-06T12:21:33;10.60;99.90
20418;DHT22;10368;51.436;6.774;2024-03-06T12:24:10;10.30;99.90
20418;DHT22;10368;51.436;6.774;2024-03-06T12:26:37;10.70;99.90
20418;DHT22;10368;51.436;6.774;2024-03-06T12:29:08;10.70;99.90
20418;DHT22;10368;51.436;6.774;2024-03-06T12:31:36;10.80;99.90
20418;DHT22;10368;51.436;6.774;2024-03-06T12:34:05;10.90;99.90
20418;DHT22;10368;51.436;6.774;2024-03-06T12:36:33;11.00;99.90
20418;DHT22;10368;51.436;6.774;2024-03-06T12:39:03;11.20;99.90
20418;DHT22;10368;51.436;6.774;2024-03-06T12:41:30;11.30;99.90
20418;DHT22;10368;51.436;6.774;2024-03-06T12:43:57;11.40;99.90
20418;DHT22;10368;51.436;6.774;2024-03-06T12:46:24;11.30;99.90
20418;DHT22;10368;51.436;6.774;2024-03-06T12:48:53;11.80;99.90
20418;DHT22;10368;51.436;6.774;2024-03-06T12:51:20;12.50;99.90
20418;DHT22;10368;51.436;6.774;2024-03-06T12:53:46;13.10;99.90
20418;DHT22;10368;51.436;6.774;2024-03-06T12:56:15;12.90;99.90
20418;DHT22;10368;51.436;6.774;2024-03-06T12:58:42;12.70;99.90
20418;DHT22;10368;51.436;6.774;2024-03-06T13:01:09;14.00;99.90
20418;DHT22;10368;51.436;6.774;2024-03-06T13:03:37;13.40;99.90
20418;DHT22;10368;51.436;6.774;2024-03-06T13:06:05;13.30;99.90
20418;DHT22;10368;51.436;6.774;2024-03-06T13:08:32;12.60;99.90
20418;DHT22;10368;51.436;6.774;2024-03-06T13:10:59;13.50;99.90
20418;DHT22;10368;51.436;6.774;2024-03-06T13:13:26;14.70;99.90
20418;DHT22;10368;51.436;6.774;2024-03-06T13:15:56;14.90;98.00
20418;DHT22;10368;51.436;6.774;2024-03-06T13:18:23;15.00;98.60
20418;DHT22;10368;51.436;6.774;2024-03-06T13:20:50;15.50;95.90
20418;DHT22;10368;51.436;6.774;2024-03-06T13:23:17;16.10;95.20
20418;DHT22;10368;51.436;6.774;2024-03-06T13:25:44;16.60;91.20
20418;DHT22;10368;51.436;6.774;2024-03-06T13:28:12;15.10;93.20
20418;DHT22;10368;51.436;6.774;2024-03-06T13:30:39;14.80;94.80
20418;DHT22;10368;51.436;6.774;2024-03-06T13:33:06;15.10;93.90
20418;DHT22;10368;51.436;6.774;2024-03-06T13:35:34;14.60;94.20
20418;DHT22;10368;51.436;6.774;2024-03-06T13:38:01;14.40;94.90
20418;DHT22;10368;51.436;6.774;2024-03-06T13:40:30;15.00;94.00
20418;DHT22;10368;51.436;6.774;2024-03-06T13:42:57;13.40;96.80
20418;DHT22;10368;51.436;6.774;2024-03-06T13:45:24;13.20;98.00
20418;DHT22;10368;51.436;6.774;2024-03-06T13:47:51;13.40;97.70
20418;DHT22;10368;51.436;6.774;2024-03-06T13:50:18;13.50;95.50
20418;DHT22;10368;51.436;6.774;2024-03-06T13:52:45;13.20;96.00
20418;DHT22;10368;51.436;6.774;2024-03-06T13:55:12;13.10;97.70
20418;DHT22;10368;51.436;6.774;2024-03-06T13:57:40;13.50;96.90
20418;DHT22;10368;51.436;6.774;2024-03-06T14:00:11;13.70;95.60
20418;DHT22;10368;51.436;6.774;2024-03-06T14:02:45;14.10;95.60
20418;DHT22;10368;51.436;6.774;2024-03-06T14:05:15;14.90;94.10
20418;DHT22;10368;51.436;6.774;2024-03-06T14:07:42;14.90;93.10
20418;DHT22;10368;51.436;6.774;2024-03-06T14:10:09;14.70;93.10
20418;DHT22;10368;51.436;6.774;2024-03-06T14:12:38;14.50;93.60
20418;DHT22;10368;51.436;6.774;2024-03-06T14:15:07;14.90;93.80
20418;DHT22;10368;51.436;6.774;2024-03-06T14:17:41;14.50;94.00
20418;DHT22;10368;51.436;6.774;2024-03-06T14:20:09;15.80;92.70
20418;DHT22;10368;51.436;6.774;2024-03-06T14:22:39;15.20;92.30
20418;DHT22;10368;51.436;6.774;2024-03-06T14:25:07;15.00;92.00
20418;DHT22;10368;51.436;6.774;2024-03-06T14:27:34;15.50;92.10
20418;DHT22;10368;51.436;6.774;2024-03-06T14:30:05;15.70;92.70
20418;DHT22;10368;51.436;6.774;2024-03-06T14:32:34;15.90;90.50
20418;DHT22;10368;51.436;6.774;2024-03-06T14:35:01;15.20;91.60
20418;DHT22;10368;51.436;6.774;2024-03-06T14:37:29;14.30;94.00
20418;DHT22;10368;51.436;6.774;2024-03-06T14:39:56;14.10;94.20
20418;DHT22;10368;51.436;6.774;2024-03-06T14:42:23;13.90;94.20
20418;DHT22;10368;51.436;6.774;2024-03-06T14:44:50;13.70;96.00
20418;DHT22;10368;51.436;6.774;2024-03-06T14:47:17;13.50;96.60
20418;DHT22;10368;51.436;6.774;2024-03-06T14:49:44;13.40;98.40
20418;DHT22;10368;51.436;6.774;2024-03-06T14:52:12;13.00;97.50
20418;DHT22;10368;51.436;6.774;2024-03-06T14:54:40;12.90;99.30
20418;DHT22;10368;51.436;6.774;2024-03-06T14:57:11;12.90;99.60
20418;DHT22;10368;51.436;6.774;2024-03-06T14:59:39;12.40;99.90
20418;DHT22;10368;51.436;6.774;2024-03-06T15:02:06;12.40;99.90
20418;DHT22;10368;51.436;6.774;2024-03-06T15:04:33;12.50;99.50
20418;DHT22;10368;51.436;6.774;2024-03-06T15:07:00;12.60;99.60
20418;DHT22;10368;51.436;6.774;2024-03-06T15:09:27;12.50;99.70
20418;DHT22;10368;51.436;6.774;2024-03-06T15:11:55;12.60;99.70
20418;DHT22;10368;51.436;6.774;2024-03-06T15:14:23;12.40;99.90
20418;DHT22;10368;51.436;6.774;2024-03-06T15:16:51;12.60;99.90
20418;DHT22;10368;51.436;6.774;2024-03-06T15:19:18;12.40;99.90
20418;DHT22;10368;51.436;6.774;2024-03-06T15:21:45;12.50;99.90
20418;DHT22;10368;51.436;6.774;2024-03-06T15:24:12;12.40;99.90
20418;DHT22;10368;51.436;6.774;2024-03-06T15:26:39;12.40;99.90
20418;DHT22;10368;51.436;6.774;2024-03-06T15:29:07;12.30;99.90
20418;DHT22;10368;51.436;6.774;2024-03-06T15:31:36;12.30;99.90
20418;DHT22;10368;51.436;6.774;2024-03-06T15:34:03;12.10;99.90
20418;DHT22;10368;51.436;6.774;2024-03-06T15:36:30;12.20;99.90
20418;DHT22;10368;51.436;6.774;2024-03-06T15:38:57;12.10;99.90
20418;DHT22;10368;51.436;6.774;2024-03-06T15:41:25;12.00;99.90
20418;DHT22;10368;51.436;6.774;2024-03-06T15:43:52;12.00;99.90
20418;DHT22;10368;51.436;6.774;2024-03-06T15:46:19;12.00;99.90
20418;DHT22;10368;51.436;6.774;2024-03-06T15:48:46;11.90;99.90
20418;DHT22;10368;51.436;6.774;2024-03-06T15:51:13;11.90;99.90
20418;DHT22;10368;51.436;6.774;2024-03-06T15:53:40;12.10;99.90
20418;DHT22;10368;51.436;6.774;2024-03-06T15:56:07;11.90;99.90
20418;DHT22;10368;51.436;6.774;2024-03-06T15:58:35;11.90;99.90
20418;DHT22;10368;51.436;6.774;2024-03-06T16:01:02;11.80;99.90
20418;DHT22;10368;51.436;6.774;2024-03-06T16:03:32;12.00;99.90
20418;DHT22;10368;51.436;6.774;2024-03-06T16:05:58;11.80;99.90